Time;durP1;ratioP1;P1;durP2;ratioP2;P2;SDS_P1;SDS_P2;PMS_P1;PMS_P2;Temp;Humidity;BMP_temperature;BMP_pressure;BME280_temperature;BME280_humidity;BME280_pressure;Samples;Min_cycle;Max_cycle;Signal;HPM_P1;HPM_P2
2024/01/27 00:03:07;;;;;;;11.40;2.63;;;4.20;30.30;;;;;;20673360;28;20469;-39
2024/01/27 00:13:08;;;;;;;13.80;3.00;;;4.40;26.00;;;;;;20687540;28;20099;-39
2024/01/27 00:23:09;;;;;;;15.17;3.30;;;4.40;27.80;;;;;;20688405;28;20074;-40
2024/01/27 00:33:09;;;;;;;12.38;2.75;;;4.20;30.70;;;;;;20689843;28;20568;-39
2024/01/27 00:43:10;;;;;;;15.30;2.75;;;4.10;31.60;;;;;;20682832;28;20041;-40
2024/01/27 00:53:11;;;;;;;10.95;2.88;;;4.00;38.20;;;;;;20683121;28;20038;-41
2024/01/27 01:03:11;;;;;;;15.20;2.85;;;4.00;42.30;;;;;;20681430;28;20482;-39
2024/01/27 01:13:12;;;;;;;21.37;3.70;;;4.00;45.20;;;;;;20682990;28;20187;-39
2024/01/27 01:23:13;;;;;;;16.85;3.20;;;4.10;43.70;;;;;;20675237;28;20840;-39
2024/01/27 01:33:13;;;;;;;14.00;2.92;;;4.00;47.10;;;;;;20681144;28;20031;-40
2024/01/27 01:43:14;;;;;;;18.23;3.00;;;3.90;55.10;;;;;;20680156;28;20061;-39
2024/01/27 01:53:15;;;;;;;17.23;3.10;;;4.00;57.10;;;;;;20679302;28;20030;-39
2024/01/27 02:03:15;;;;;;;15.25;2.65;;;3.90;53.10;;;;;;20673465;28;20057;-40
2024/01/27 02:13:20;;;;;;;13.85;3.08;;;3.90;55.00;;;;;;20666468;28;20121;-39
2024/01/27 02:23:20;;;;;;;11.35;2.25;;;3.80;48.70;;;;;;20694986;28;20504;-40
2024/01/27 02:33:21;;;;;;;11.85;2.22;;;3.60;57.40;;;;;;20663526;28;20034;-39
2024/01/27 02:43:21;;;;;;;12.60;2.90;;;3.60;57.50;;;;;;20671852;28;20576;-40
2024/01/27 02:53:22;;;;;;;12.23;2.10;;;3.60;57.40;;;;;;20674328;28;20060;-39
2024/01/27 03:03:23;;;;;;;10.32;1.80;;;3.50;60.00;;;;;;20673487;28;20458;-39
2024/01/27 03:13:23;;;;;;;8.35;1.73;;;3.40;71.00;;;;;;20676634;28;20104;-39
2024/01/27 03:23:24;;;;;;;9.33;2.03;;;3.40;66.00;;;;;;20680773;28;20050;-39
2024/01/27 03:33:25;;;;;;;9.85;1.90;;;3.40;67.90;;;;;;20692397;28;20471;-39
2024/01/27 03:43:26;;;;;;;17.92;2.55;;;3.40;81.90;;;;;;20690494;28;20097;-41
2024/01/27 03:53:26;;;;;;;11.95;2.92;;;3.40;72.70;;;;;;20685407;28;20046;-39
2024/01/27 04:03:27;;;;;;;13.85;3.22;;;3.50;72.90;;;;;;20673798;28;20410;-42
2024/01/27 04:13:28;;;;;;;21.23;4.38;;;3.40;80.50;;;;;;20684670;28;20093;-39
2024/01/27 04:23:28;;;;;;;14.32;5.18;;;3.50;66.20;;;;;;20682977;28;20494;-40
2024/01/27 04:33:30;;;;;;;14.75;5.70;;;3.40;72.40;;;;;;20682982;28;20070;-40
2024/01/27 04:43:30;;;;;;;17.27;6.85;;;3.40;79.10;;;;;;20682209;28;20041;-39
2024/01/27 04:53:31;;;;;;;16.02;6.80;;;3.40;76.20;;;;;;20683303;28;20136;-39
2024/01/27 05:03:32;;;;;;;16.58;8.13;;;3.30;77.50;;;;;;20682275;28;20214;-38
2024/01/27 05:13:32;;;;;;;18.77;7.30;;;3.30;83.70;;;;;;20680028;28;20089;-39
2024/01/27 05:23:33;;;;;;;21.97;8.30;;;3.30;79.90;;;;;;20682585;28;20121;-39
2024/01/27 05:33:33;;;;;;;17.80;7.55;;;3.20;88.00;;;;;;20682824;28;20461;-39
2024/01/27 05:43:34;;;;;;;16.30;7.72;;;3.20;94.00;;;;;;20679757;28;20060;-38
2024/01/27 05:53:36;;;;;;;11.53;6.53;;;3.20;91.90;;;;;;20672597;28;20038;-39
2024/01/27 06:03:37;;;;;;;17.70;7.75;;;3.30;82.80;;;;;;20682534;28;20465;-39
2024/01/27 06:13:38;;;;;;;18.83;8.57;;;3.40;77.50;;;;;;20679004;28;20033;-39
2024/01/27 06:23:39;;;;;;;15.55;9.25;;;3.30;82.00;;;;;;20679283;28;20512;-40
2024/01/27 06:33:40;;;;;;;21.25;9.77;;;3.20;84.10;;;;;;20671319;28;20053;-39
2024/01/27 06:43:41;;;;;;;25.17;9.75;;;3.20;94.60;;;;;;20677949;28;20046;-39
2024/01/27 06:53:41;;;;;;;21.75;9.07;;;3.10;93.60;;;;;;20681756;28;20045;-40
2024/01/27 07:03:44;;;;;;;22.15;9.10;;;3.10;92.30;;;;;;20690544;28;20463;-41
2024/01/27 07:13:45;;;;;;;22.83;9.27;;;3.10;93.80;;;;;;20695514;28;20433;-39
2024/01/27 07:23:45;;;;;;;19.88;9.18;;;3.00;99.20;;;;;;20684061;28;20054;-39
2024/01/27 07:33:46;;;;;;;19.20;10.32;;;3.10;94.80;;;;;;20687853;28;20526;-39
2024/01/27 07:43:47;;;;;;;26.48;14.10;;;3.20;94.20;;;;;;20682292;28;20494;-39
2024/01/27 07:53:47;;;;;;;27.13;11.93;;;3.20;95.60;;;;;;20692407;28;20088;-40
2024/01/27 08:03:48;;;;;;;24.92;14.20;;;3.20;99.60;;;;;;20690782;28;20038;-39
2024/01/27 08:13:49;;;;;;;21.67;11.70;;;3.30;97.70;;;;;;20689064;28;20042;-39
2024/01/27 08:23:49;;;;;;;23.77;12.05;;;3.40;97.90;;;;;;20680752;28;20038;-39
2024/01/27 08:33:50;;;;;;;25.50;12.13;;;3.40;94.80;;;;;;20677200;28;20421;-39
2024/01/27 08:43:50;;;;;;;38.03;15.00;;;3.40;99.90;;;;;;20683458;28;20210;-39
2024/01/27 08:53:51;;;;;;;28.05;12.23;;;3.60;99.90;;;;;;20681024;28;20031;-46
2024/01/27 09:03:52;;;;;;;25.90;13.90;;;3.70;99.40;;;;;;20681736;28;20394;-40
2024/01/27 09:13:53;;;;;;;24.85;11.20;;;4.00;99.90;;;;;;20678840;28;20449;-40
2024/01/27 09:23:57;;;;;;;21.90;10.35;;;4.30;89.00;;;;;;20681898;28;20147;-40
2024/01/27 09:33:57;;;;;;;27.13;11.88;;;4.40;66.60;;;;;;20671903;28;20153;-39
2024/01/27 09:44:02;;;;;;;22.27;11.13;;;4.80;47.20;;;;;;20678431;28;20045;-39
2024/01/27 09:54:03;;;;;;;21.15;10.25;;;5.00;36.80;;;;;;20681179;28;20045;-40
2024/01/27 10:04:04;;;;;;;23.05;11.40;;;5.10;32.50;;;;;;20676353;28;20048;-39
2024/01/27 10:14:08;;;;;;;21.30;9.35;;;5.30;24.10;;;;;;20676777;28;20046;-39
2024/01/27 10:24:09;;;;;;;20.60;9.40;;;5.40;27.80;;;;;;20673997;28;20336;-39
2024/01/27 10:34:14;;;;;;;21.77;9.48;;;5.80;27.70;;;;;;20673460;28;20045;-40
2024/01/27 10:44:17;;;;;;;22.40;9.18;;;6.30;19.20;;;;;;20677886;28;20406;-39
2024/01/27 10:54:26;;;;;;;17.20;8.90;;;6.60;15.30;;;;;;20678919;28;20050;-39
2024/01/27 11:04:28;;;;;;;18.60;8.25;;;7.20;5.70;;;;;;20673342;28;20436;-39
2024/01/27 11:14:29;;;;;;;17.40;7.25;;;7.70;1.00;;;;;;20678840;28;20076;-40
2024/01/27 11:24:30;;;;;;;18.27;6.55;;;8.20;1.00;;;;;;20664951;28;20144;-41
2024/01/27 11:34:44;;;;;;;17.42;5.70;;;8.60;1.00;;;;;;20668412;28;20329;-39
2024/01/27 11:44:45;;;;;;;18.38;5.00;;;9.10;1.00;;;;;;20684441;28;20038;-40
2024/01/27 11:54:45;;;;;;;14.55;5.25;;;9.40;1.00;;;;;;20681705;28;20049;-40
2024/01/27 12:04:47;;;;;;;18.25;5.63;;;9.60;1.00;;;;;;20680740;28;20093;-39
2024/01/27 12:14:50;;;;;;;17.75;5.20;;;9.80;1.00;;;;;;20680748;28;20041;-40
2024/01/27 12:24:51;;;;;;;14.88;4.32;;;10.10;1.00;;;;;;20674957;28;20497;-40
2024/01/27 12:34:51;;;;;;;18.38;5.05;;;10.30;1.00;;;;;;20677105;28;20467;-39
2024/01/27 12:44:52;;;;;;;16.33;4.70;;;10.40;1.00;;;;;;20677245;28;20061;-40
2024/01/27 12:54:53;;;;;;;15.30;4.72;;;10.70;1.00;;;;;;20675927;28;20468;-40
2024/01/27 13:04:54;;;;;;;15.63;5.10;;;10.50;1.00;;;;;;20675234;28;20406;-39
2024/01/27 13:14:55;;;;;;;14.98;4.35;;;10.50;1.00;;;;;;20679805;28;20206;-40
2024/01/27 13:24:57;;;;;;;17.23;4.82;;;10.20;1.00;;;;;;20669097;28;20154;-38
2024/01/27 13:34:57;;;;;;;17.73;5.18;;;9.70;1.00;;;;;;20672373;28;20048;-40
2024/01/27 13:44:58;;;;;;;16.70;5.13;;;9.70;1.00;;;;;;20672639;28;20033;-40
2024/01/27 13:54:58;;;;;;;17.17;5.20;;;9.60;1.00;;;;;;20666972;28;20070;-39
2024/01/27 14:04:59;;;;;;;15.88;5.18;;;9.60;1.00;;;;;;20667417;28;20607;-40
2024/01/27 14:15:08;;;;;;;16.67;5.00;;;9.40;1.00;;;;;;20667412;28;20034;-40
2024/01/27 14:25:09;;;;;;;19.50;4.97;;;9.20;1.00;;;;;;20668967;28;20030;-40
2024/01/27 14:35:10;;;;;;;13.00;4.13;;;8.80;1.00;;;;;;20670779;28;20394;-40
2024/01/27 14:45:10;;;;;;;16.38;4.55;;;8.80;1.00;;;;;;20661898;28;20042;-40
2024/01/27 14:55:15;;;;;;;16.87;5.00;;;8.80;1.00;;;;;;20666142;28;20156;-40
2024/01/27 15:05:15;;;;;;;11.73;3.85;;;8.60;1.00;;;;;;20669765;28;21075;-40
2024/01/27 15:15:17;;;;;;;14.30;4.05;;;8.60;1.00;;;;;;20675774;28;20073;-39
2024/01/27 15:25:17;;;;;;;15.23;4.40;;;8.50;1.00;;;;;;20683209;28;20092;-40
2024/01/27 15:35:18;;;;;;;13.40;4.57;;;8.30;1.00;;;;;;20683880;28;20046;-40
2024/01/27 15:45:19;;;;;;;15.38;5.43;;;8.20;1.00;;;;;;20680503;28;20471;-40
2024/01/27 15:55:19;;;;;;;16.93;4.97;;;8.00;1.00;;;;;;20680388;28;20033;-40
2024/01/27 16:05:20;;;;;;;20.23;5.87;;;7.90;1.00;;;;;;20672889;28;21442;-40
2024/01/27 16:15:20;;;;;;;19.00;5.23;;;7.60;1.00;;;;;;20676030;28;20469;-39
2024/01/27 16:25:21;;;;;;;25.50;8.85;;;7.50;1.00;;;;;;20677331;28;21015;-39
2024/01/27 16:35:22;;;;;;;21.02;7.07;;;7.30;1.00;;;;;;20680289;28;20054;-40
2024/01/27 16:45:22;;;;;;;15.40;5.47;;;7.40;1.00;;;;;;20677567;28;20043;-39
2024/01/27 16:55:23;;;;;;;25.58;7.70;;;7.20;1.00;;;;;;20673771;28;20414;-40
2024/01/27 17:05:24;;;;;;;14.63;5.30;;;7.20;1.00;;;;;;20676975;28;20122;-40
2024/01/27 17:15:26;;;;;;;19.53;5.83;;;7.10;1.00;;;;;;20675922;28;20042;-40
2024/01/27 17:25:26;;;;;;;20.42;8.00;;;6.90;1.00;;;;;;20676465;28;20539;-39
2024/01/27 17:35:27;;;;;;;27.33;7.55;;;6.90;1.00;;;;;;20675664;28;20106;-39
2024/01/27 17:45:28;;;;;;;33.05;12.68;;;6.80;1.00;;;;;;20677635;28;20085;-40
2024/01/27 17:55:29;;;;;;;28.58;11.65;;;6.70;1.00;;;;;;20675804;28;20451;-40
2024/01/27 18:05:29;;;;;;;51.55;17.40;;;6.50;1.00;;;;;;20673169;28;20490;-39
2024/01/27 18:15:30;;;;;;;32.05;14.32;;;6.20;1.00;;;;;;20669319;28;20056;-39
2024/01/27 18:25:31;;;;;;;25.02;9.35;;;6.00;1.00;;;;;;20675418;28;20040;-40
2024/01/27 18:35:31;;;;;;;21.02;8.25;;;6.20;1.00;;;;;;20675197;28;20088;-40
2024/01/27 18:45:32;;;;;;;24.02;8.60;;;5.90;1.00;;;;;;20674872;28;20072;-39
2024/01/27 18:55:37;;;;;;;19.45;8.20;;;5.70;2.20;;;;;;20692911;28;20034;-40
2024/01/27 19:05:38;;;;;;;24.67;8.88;;;5.70;5.30;;;;;;20687397;28;20288;-40
2024/01/27 19:15:39;;;;;;;26.75;10.48;;;5.80;1.30;;;;;;20691810;28;20092;-40
2024/01/27 19:25:43;;;;;;;29.27;10.68;;;5.80;1.00;;;;;;20692061;28;20530;-41
2024/01/27 19:35:44;;;;;;;27.58;9.48;;;5.90;1.00;;;;;;20680249;28;20050;-39
2024/01/27 19:45:45;;;;;;;31.30;13.07;;;5.80;1.00;;;;;;20691135;28;20048;-39
2024/01/27 19:55:45;;;;;;;28.55;10.10;;;5.80;1.00;;;;;;20684267;28;20125;-39
2024/01/27 20:05:46;;;;;;;24.33;10.83;;;5.60;1.00;;;;;;20683494;28;20497;-40
2024/01/27 20:15:46;;;;;;;22.17;9.43;;;5.40;1.00;;;;;;20686299;28;20469;-39
2024/01/27 20:25:47;;;;;;;27.07;9.83;;;5.30;1.00;;;;;;20689197;28;20037;-39
2024/01/27 20:35:48;;;;;;;21.95;8.65;;;5.50;1.00;;;;;;20689504;28;21039;-39
2024/01/27 20:45:49;;;;;;;17.10;7.38;;;5.40;1.00;;;;;;20684596;28;20057;-44
2024/01/27 20:55:50;;;;;;;21.40;7.40;;;5.20;1.00;;;;;;20686447;28;20041;-39
2024/01/27 21:05:51;;;;;;;17.35;6.72;;;5.30;1.00;;;;;;20682876;28;20073;-39
2024/01/27 21:15:52;;;;;;;18.73;6.73;;;5.10;1.00;;;;;;20682004;28;20125;-40
2024/01/27 21:25:52;;;;;;;16.00;6.40;;;5.10;1.00;;;;;;20681546;28;20552;-39
2024/01/27 21:35:53;;;;;;;21.13;8.17;;;5.10;1.00;;;;;;20676807;28;20046;-39
2024/01/27 21:45:54;;;;;;;18.98;7.32;;;4.90;1.00;;;;;;20682208;28;21034;-39
2024/01/27 21:55:55;;;;;;;16.33;6.67;;;4.90;1.00;;;;;;20677255;28;20046;-39
2024/01/27 22:06:02;;;;;;;17.35;6.85;;;4.90;1.00;;;;;;20676434;28;20042;-40
2024/01/27 22:16:03;;;;;;;14.15;6.32;;;4.90;1.00;;;;;;20675228;28;20129;-39
2024/01/27 22:26:03;;;;;;;15.57;6.03;;;4.80;1.00;;;;;;20679403;28;20034;-38
2024/01/27 22:36:06;;;;;;;19.05;6.22;;;4.80;1.00;;;;;;20674450;28;20050;-39
2024/01/27 22:46:06;;;;;;;13.00;5.10;;;4.90;1.00;;;;;;20680900;28;20042;-40
2024/01/27 22:56:07;;;;;;;15.35;5.50;;;4.80;1.00;;;;;;20677708;28;20058;-40
2024/01/27 23:06:12;;;;;;;11.77;5.72;;;4.70;1.00;;;;;;20679174;28;20576;-40
2024/01/27 23:16:15;;;;;;;14.88;6.35;;;4.60;1.00;;;;;;20677089;28;20042;-39
2024/01/27 23:26:16;;;;;;;14.32;5.85;;;4.50;1.00;;;;;;20678685;28;20037;-39
2024/01/27 23:36:16;;;;;;;15.68;6.13;;;4.30;1.00;;;;;;20678661;28;20054;-40
2024/01/27 23:46:17;;;;;;;17.03;6.03;;;4.30;1.00;;;;;;20689884;28;20475;-39
2024/01/27 23:56:17;;;;;;;14.13;6.28;;;4.20;1.00;;;;;;20694308;28;20465;-39
